createdAt,value
2023-04-15T00:02:25.518Z,99771.94
2023-04-15T00:04:53.317Z,99773.16
2023-04-15T00:07:20.750Z,99778.88
2023-04-15T00:09:48.268Z,99771.13
2023-04-15T00:12:16.238Z,99771.69
2023-04-15T00:14:43.662Z,99767.03
2023-04-15T00:17:11.268Z,99771.47
2023-04-15T00:19:38.872Z,99760.75
2023-04-15T00:22:07.112Z,99768.06
2023-04-15T00:24:34.620Z,99761.50
2023-04-15T00:27:02.414Z,99763.44
2023-04-15T00:29:31.130Z,99757.47
2023-04-15T00:31:58.744Z,99745.91
2023-04-15T00:34:27.924Z,99758.91
2023-04-15T00:36:55.517Z,99762.25
2023-04-15T00:39:23.293Z,99761.84
2023-04-15T00:41:50.889Z,99765.28
2023-04-15T00:44:19.010Z,99760.72
2023-04-15T00:46:48.207Z,99760.06
2023-04-15T00:49:15.664Z,99755.44
2023-04-15T00:51:43.278Z,99759.69
2023-04-15T00:54:11.654Z,99750.66
2023-04-15T00:56:39.877Z,99757.13
2023-04-15T00:59:08.010Z,99752.03
2023-04-15T01:01:36.649Z,99745.78
2023-04-15T01:04:05.385Z,99757.19
2023-04-15T01:06:33.622Z,99755.03
2023-04-15T01:09:01.827Z,99744.09
2023-04-15T01:11:30.737Z,99753.84
2023-04-15T01:13:58.866Z,99748.16
2023-04-15T01:16:27.703Z,99754.56
2023-04-15T01:18:55.790Z,99757.22
2023-04-15T01:21:23.859Z,99758.38
2023-04-15T01:23:53.515Z,99758.53
2023-04-15T01:26:22.295Z,99759.16
2023-04-15T01:28:50.667Z,99757.28
2023-04-15T01:31:19.136Z,99757.34
2023-04-15T01:33:47.166Z,99755.22
2023-04-15T01:36:34.379Z,99759.72
2023-04-15T01:39:02.294Z,99760.53
2023-04-15T01:41:32.981Z,99752.03
2023-04-15T01:44:02.083Z,99758.00
2023-04-15T01:46:33.957Z,99755.00
2023-04-15T01:49:02.933Z,99751.00
2023-04-15T01:51:34.255Z,99750.03
2023-04-15T01:54:03.181Z,99749.63
2023-04-15T01:56:32.330Z,99748.09
2023-04-15T01:59:01.880Z,99756.63
2023-04-15T02:01:31.263Z,99754.06
2023-04-15T02:04:01.817Z,99760.44
2023-04-15T02:06:33.497Z,99755.34
2023-04-15T02:09:02.564Z,99757.34
2023-04-15T02:11:31.538Z,99746.91
2023-04-15T02:14:00.439Z,99752.31
2023-04-15T02:16:29.243Z,99760.50
2023-04-15T02:18:58.274Z,99758.91
2023-04-15T02:21:27.454Z,99762.59
2023-04-15T02:23:56.552Z,99760.72
2023-04-15T02:26:25.776Z,99761.72
2023-04-15T02:28:56.498Z,99760.72
2023-04-15T02:31:28.024Z,99757.75
2023-04-15T02:33:56.967Z,99766.69
2023-04-15T02:36:27.160Z,99757.38
2023-04-15T02:38:55.973Z,99765.06
2023-04-15T02:41:27.828Z,99763.63
2023-04-15T02:43:57.385Z,99765.53
2023-04-15T02:46:35.267Z,99767.34
2023-04-15T02:49:09.267Z,99766.22
2023-04-15T02:51:38.963Z,99782.81
2023-04-15T02:54:08.817Z,99775.41
2023-04-15T02:56:37.590Z,99766.13
2023-04-15T02:59:06.874Z,99780.44
2023-04-15T03:01:35.986Z,99773.47
2023-04-15T03:04:04.834Z,99780.38
2023-04-15T03:06:33.666Z,99783.78
2023-04-15T03:09:02.698Z,99784.22
2023-04-15T03:11:40.552Z,99784.22
2023-04-15T03:14:11.305Z,99786.16
2023-04-15T03:16:44.280Z,99787.31
2023-04-15T03:19:15.643Z,99789.13
2023-04-15T03:21:45.953Z,99786.69
2023-04-15T03:24:15.844Z,99788.38
2023-04-15T03:26:44.736Z,99791.09
2023-04-15T03:29:17.394Z,99783.69
2023-04-15T03:31:47.031Z,99791.19
2023-04-15T03:34:15.976Z,99784.47
2023-04-15T03:36:44.700Z,99787.63
2023-04-15T03:39:13.687Z,99800.53
2023-04-15T03:41:42.564Z,99794.53
2023-04-15T03:44:11.489Z,99794.34
2023-04-15T03:46:40.413Z,99801.00
2023-04-15T03:49:09.408Z,99789.63
2023-04-15T03:51:38.413Z,99792.06
2023-04-15T03:54:07.162Z,99794.09
2023-04-15T03:56:35.959Z,99800.50
2023-04-15T03:59:04.722Z,99796.34
2023-04-15T04:01:33.487Z,99795.03
2023-04-15T04:04:02.504Z,99795.25
2023-04-15T04:06:32.879Z,99796.38
2023-04-15T04:09:01.909Z,99801.44
2023-04-15T04:11:31.836Z,99794.53
2023-04-15T04:14:00.943Z,99804.94
2023-04-15T04:16:29.934Z,99803.31
2023-04-15T04:18:58.783Z,99805.31
2023-04-15T04:21:28.343Z,99804.69
2023-04-15T04:23:57.024Z,99809.88
2023-04-15T04:26:26.025Z,99812.34
2023-04-15T04:28:54.793Z,99813.63
2023-04-15T04:31:23.615Z,99805.31
2023-04-15T04:33:52.451Z,99816.16
2023-04-15T04:36:21.181Z,99815.41
2023-04-15T04:38:50.100Z,99821.69
2023-04-15T04:41:19.147Z,99814.06
2023-04-15T04:43:48.186Z,99827.09
2023-04-15T04:46:17.223Z,99817.13
2023-04-15T04:48:47.131Z,99817.56
2023-04-15T04:51:16.153Z,99826.03
2023-04-15T04:53:45.049Z,99826.31
2023-04-15T04:56:13.826Z,99831.34
2023-04-15T04:58:42.627Z,99832.84
2023-04-15T05:01:14.551Z,99841.97
2023-04-15T05:03:43.576Z,99831.31
2023-04-15T05:06:12.737Z,99849.56
2023-04-15T05:08:42.006Z,99851.69
2023-04-15T05:11:11.293Z,99851.78
2023-04-15T05:13:40.101Z,99860.31
2023-04-15T05:16:09.643Z,99850.34
2023-04-15T05:18:38.710Z,99854.03
2023-04-15T05:21:07.748Z,99850.44
2023-04-15T05:23:36.528Z,99859.25
2023-04-15T05:26:05.383Z,99864.94
2023-04-15T05:28:34.248Z,99866.63
2023-04-15T05:31:03.149Z,99866.38
2023-04-15T05:33:32.019Z,99872.03
2023-04-15T05:36:01.258Z,99871.94
2023-04-15T05:38:30.012Z,99865.88
2023-04-15T05:40:58.879Z,99873.97
2023-04-15T05:43:27.603Z,99873.66
2023-04-15T05:45:56.634Z,99872.38
2023-04-15T05:48:25.385Z,99882.72
2023-04-15T05:50:54.591Z,99879.84
2023-04-15T05:53:23.578Z,99887.00
2023-04-15T05:55:52.953Z,99879.50
2023-04-15T05:58:21.769Z,99884.31
2023-04-15T06:00:51.493Z,99877.44
2023-04-15T06:03:25.869Z,99893.81
2023-04-15T06:05:54.962Z,99878.88
2023-04-15T06:08:23.899Z,99890.91
2023-04-15T06:10:52.719Z,99883.13
2023-04-15T06:13:21.620Z,99882.66
2023-04-15T06:15:50.597Z,99879.16
2023-04-15T06:18:20.187Z,99877.53
2023-04-15T06:20:48.968Z,99869.22
2023-04-15T06:23:18.045Z,99867.84
2023-04-15T06:25:46.866Z,99864.63
2023-04-15T06:28:15.696Z,99866.84
2023-04-15T06:30:44.682Z,99860.66
2023-04-15T06:33:13.901Z,99876.16
2023-04-15T06:35:42.652Z,99870.81
2023-04-15T06:38:12.365Z,99876.88
2023-04-15T06:40:41.264Z,99873.69
2023-04-15T06:43:10.377Z,99864.69
2023-04-15T06:45:39.570Z,99871.44
2023-04-15T06:48:08.597Z,99868.56
2023-04-15T06:50:37.796Z,99864.19
2023-04-15T06:53:06.699Z,99868.81
2023-04-15T06:55:35.464Z,99865.88
2023-04-15T06:58:04.175Z,99871.91
2023-04-15T07:00:34.014Z,99871.16
2023-04-15T07:03:03.863Z,99865.56
2023-04-15T07:05:33.622Z,99858.59
2023-04-15T07:08:02.518Z,99869.56
2023-04-15T07:10:31.600Z,99875.91
2023-04-15T07:13:01.143Z,99872.75
2023-04-15T07:15:30.154Z,99875.78
2023-04-15T07:17:58.924Z,99862.13
2023-04-15T07:20:27.587Z,99866.34
2023-04-15T07:22:56.493Z,99857.72
2023-04-15T07:25:25.850Z,99868.22
2023-04-15T07:27:54.669Z,99865.88
2023-04-15T07:30:23.497Z,99869.56
2023-04-15T07:32:52.802Z,99868.19
2023-04-15T07:35:21.802Z,99859.66
2023-04-15T07:37:50.687Z,99858.72
2023-04-15T07:40:19.876Z,99857.75
2023-04-15T07:42:49.556Z,99862.78
2023-04-15T07:45:18.731Z,99864.50
2023-04-15T07:47:47.562Z,99863.34
2023-04-15T07:50:17.352Z,99856.91
2023-04-15T07:52:46.569Z,99856.84
2023-04-15T07:55:17.693Z,99855.44
2023-04-15T07:57:47.471Z,99860.03
2023-04-15T08:00:16.650Z,99865.44
2023-04-15T08:02:47.026Z,99863.22
2023-04-15T08:05:15.947Z,99860.53
2023-04-15T08:07:44.891Z,99872.84
2023-04-15T08:10:14.678Z,99864.31
2023-04-15T08:12:43.570Z,99866.47
2023-04-15T08:15:13.220Z,99869.03
2023-04-15T08:17:42.121Z,99862.06
2023-04-15T08:20:13.332Z,99876.56
2023-04-15T08:22:42.617Z,99858.56
2023-04-15T08:25:11.439Z,99861.41
2023-04-15T08:27:40.185Z,99867.53
2023-04-15T08:30:09.627Z,99866.25
2023-04-15T08:32:38.852Z,99868.88
2023-04-15T08:35:07.997Z,99866.25
2023-04-15T08:37:36.894Z,99874.72
2023-04-15T08:40:06.793Z,99874.81
2023-04-15T08:42:44.967Z,99872.19
2023-04-15T08:45:14.041Z,99867.22
2023-04-15T08:47:44.592Z,99866.94
2023-04-15T08:50:15.325Z,99864.31
2023-04-15T08:52:44.175Z,99864.88
2023-04-15T08:55:14.333Z,99877.00
2023-04-15T08:57:43.256Z,99861.00
2023-04-15T09:00:14.258Z,99867.47
2023-04-15T09:02:43.581Z,99862.09
2023-04-15T09:05:12.984Z,99863.09
2023-04-15T09:07:41.879Z,99867.16
2023-04-15T09:10:10.948Z,99860.06
2023-04-15T09:12:40.113Z,99860.81
2023-04-15T09:15:12.589Z,99870.53
2023-04-15T09:17:45.819Z,99860.06
2023-04-15T09:20:16.436Z,99854.00
2023-04-15T09:22:47.919Z,99856.06
2023-04-15T09:25:30.051Z,99854.69
2023-04-15T09:28:01.851Z,99842.19
2023-04-15T09:30:30.909Z,99847.28
2023-04-15T09:33:11.036Z,99854.97
2023-04-15T09:35:40.209Z,99844.03
2023-04-15T09:38:10.204Z,99850.53
2023-04-15T09:40:42.261Z,99858.19
2023-04-15T09:43:14.486Z,99860.31
2023-04-15T09:45:55.150Z,99854.84
2023-04-15T09:48:31.761Z,99843.97
2023-04-15T09:51:02.266Z,99847.88
2023-04-15T09:53:42.716Z,99848.09
2023-04-15T09:56:41.629Z,99853.50
2023-04-15T09:59:10.435Z,99838.25
2023-04-15T10:01:42.684Z,99840.94
2023-04-15T10:04:11.897Z,99829.06
2023-04-15T10:06:41.328Z,99831.25
2023-04-15T10:09:10.326Z,99818.84
2023-04-15T10:11:39.877Z,99826.84
2023-04-15T10:14:09.972Z,99828.09
2023-04-15T10:16:43.214Z,99833.28
2023-04-15T10:19:12.313Z,99833.50
2023-04-15T10:21:41.785Z,99824.41
2023-04-15T10:24:11.121Z,99827.69
2023-04-15T10:26:40.424Z,99818.19
2023-04-15T10:29:10.776Z,99801.03
2023-04-15T10:31:41.195Z,99821.72
2023-04-15T10:34:11.517Z,99817.03
2023-04-15T10:36:40.527Z,99809.28
2023-04-15T10:39:34.538Z,99815.50
2023-04-15T10:42:13.482Z,99826.50
2023-04-15T10:44:44.904Z,99813.47
2023-04-15T10:47:21.586Z,99808.78
2023-04-15T10:50:01.649Z,99820.06
2023-04-15T10:52:30.636Z,99825.19
2023-04-15T10:55:12.324Z,99819.13
2023-04-15T10:57:43.554Z,99817.19
2023-04-15T11:00:24.229Z,99811.53
2023-04-15T11:02:57.671Z,99816.88
2023-04-15T11:05:49.998Z,99804.22
2023-04-15T11:08:19.546Z,99811.16
2023-04-15T11:10:52.870Z,99806.06
2023-04-15T11:13:22.888Z,99801.72
2023-04-15T11:15:52.149Z,99799.38
2023-04-15T11:18:26.332Z,99811.03
2023-04-15T11:20:57.675Z,99807.19
2023-04-15T11:23:40.043Z,99808.91
2023-04-15T11:26:12.451Z,99796.88
2023-04-15T11:28:45.988Z,99795.78
2023-04-15T11:31:18.053Z,99794.63
2023-04-15T11:33:59.454Z,99792.97
2023-04-15T11:36:31.905Z,99793.09
2023-04-15T11:39:01.261Z,99797.75
2023-04-15T11:41:30.441Z,99794.00
2023-04-15T11:43:59.293Z,99799.25
2023-04-15T11:46:32.061Z,99797.19
2023-04-15T11:49:01.727Z,99791.50
2023-04-15T11:51:34.739Z,99801.53
2023-04-15T11:54:02.742Z,99788.81
2023-04-15T11:56:30.674Z,99794.03
2023-04-15T11:59:00.065Z,99793.44
2023-04-15T12:01:33.027Z,99801.72
2023-04-15T12:04:01.553Z,99782.28
2023-04-15T12:06:35.319Z,99784.88
2023-04-15T12:09:15.727Z,99787.25
2023-04-15T12:11:44.436Z,99783.00
2023-04-15T12:14:13.365Z,99784.81
2023-04-15T12:16:51.738Z,99784.84
2023-04-15T12:19:26.207Z,99788.69
2023-04-15T12:22:00.399Z,99789.00
2023-04-15T12:24:32.472Z,99795.09
2023-04-15T12:27:11.455Z,99795.84
2023-04-15T12:29:40.715Z,99793.53
2023-04-15T12:32:08.574Z,99793.50
2023-04-15T12:34:38.924Z,99791.06
2023-04-15T12:37:09.619Z,99789.59
2023-04-15T12:39:40.678Z,99798.72
2023-04-15T12:42:14.953Z,99789.91
2023-04-15T12:44:45.954Z,99792.94
2023-04-15T12:47:13.742Z,99786.22
2023-04-15T12:49:42.232Z,99796.03
2023-04-15T12:52:09.985Z,99782.97
2023-04-15T12:54:37.591Z,99793.66
2023-04-15T12:57:07.323Z,99782.00
2023-04-15T12:59:35.840Z,99795.97
2023-04-15T13:02:05.155Z,99799.28
2023-04-15T13:04:32.886Z,99795.97
2023-04-15T13:07:02.181Z,99798.47
2023-04-15T13:09:29.965Z,99788.69
2023-04-15T13:11:58.326Z,99778.06
2023-04-15T13:14:25.937Z,99792.06
2023-04-15T13:16:54.056Z,99788.19
2023-04-15T13:19:21.569Z,99786.78
2023-04-15T13:21:49.048Z,99784.56
2023-04-15T13:24:17.644Z,99795.94
2023-04-15T13:26:45.306Z,99796.28
2023-04-15T13:29:14.133Z,99799.84
2023-04-15T13:31:41.820Z,99798.00
2023-04-15T13:34:09.387Z,99805.44
2023-04-15T13:36:36.877Z,99806.84
2023-04-15T13:39:05.627Z,99790.16
2023-04-15T13:41:33.190Z,99795.19
2023-04-15T13:44:00.785Z,99794.69
2023-04-15T13:46:28.337Z,99806.88
2023-04-15T13:48:55.938Z,99801.25
2023-04-15T13:51:23.526Z,99787.22
2023-04-15T13:53:53.574Z,99794.56
2023-04-15T13:56:21.600Z,99808.25
2023-04-15T13:58:49.166Z,99803.72
2023-04-15T14:01:16.968Z,99800.44
2023-04-15T14:03:44.632Z,99786.13
2023-04-15T14:06:12.375Z,99794.69
2023-04-15T14:08:40.028Z,99799.59
2023-04-15T14:11:07.575Z,99791.34
2023-04-15T14:13:35.139Z,99791.09
2023-04-15T14:16:03.089Z,99788.34
2023-04-15T14:18:30.824Z,99802.97
2023-04-15T14:20:58.330Z,99800.97
2023-04-15T14:23:25.889Z,99802.78
2023-04-15T14:25:53.520Z,99798.50
2023-04-15T14:28:21.184Z,99803.03
2023-04-15T14:30:48.952Z,99797.38
2023-04-15T14:33:16.624Z,99801.63
2023-04-15T14:35:44.118Z,99807.88
2023-04-15T14:38:11.855Z,99812.56
2023-04-15T14:40:41.158Z,99805.88
2023-04-15T14:43:08.763Z,99820.09
2023-04-15T14:45:39.475Z,99823.16
2023-04-15T14:48:10.263Z,99816.63
2023-04-15T14:50:38.067Z,99814.53
2023-04-15T14:53:06.477Z,99819.56
2023-04-15T14:55:33.957Z,99821.59
2023-04-15T14:58:02.458Z,99830.91
2023-04-15T15:00:30.823Z,99827.59
2023-04-15T15:02:58.996Z,99831.06
2023-04-15T15:05:26.722Z,99844.25
2023-04-15T15:07:54.407Z,99838.03
2023-04-15T15:10:34.637Z,99826.16
2023-04-15T15:13:10.765Z,99843.03
2023-04-15T15:15:39.195Z,99861.13
2023-04-15T15:18:07.017Z,99853.44
2023-04-15T15:20:35.516Z,99849.19
2023-04-15T15:23:03.129Z,99853.13
2023-04-15T15:25:30.566Z,99849.66
2023-04-15T15:27:58.093Z,99852.72
2023-04-15T15:30:25.657Z,99850.75
2023-04-15T15:32:53.217Z,99848.34
2023-04-15T15:35:22.857Z,99865.53
2023-04-15T15:37:50.561Z,99867.50
2023-04-15T15:40:18.254Z,99876.88
2023-04-15T15:42:47.300Z,99875.28
2023-04-15T15:45:14.788Z,99874.72
2023-04-15T15:47:43.313Z,99867.66
2023-04-15T15:50:11.119Z,99873.72
2023-04-15T15:52:38.781Z,99884.25
2023-04-15T15:55:06.797Z,99885.97
2023-04-15T15:57:34.414Z,99881.69
2023-04-15T16:00:11.173Z,99887.41
2023-04-15T16:03:05.198Z,99889.16
2023-04-15T16:05:27.988Z,99900.50
2023-04-15T16:07:55.704Z,99900.38
2023-04-15T16:10:23.296Z,99897.41
2023-04-15T16:13:12.130Z,99900.25
2023-04-15T16:15:43.208Z,99896.13
2023-04-15T16:18:14.066Z,99889.75
2023-04-15T16:21:02.066Z,99904.56
2023-04-15T16:23:29.722Z,99905.66
2023-04-15T16:25:57.866Z,99896.97
2023-04-15T16:28:27.192Z,99907.97
2023-04-15T16:30:55.730Z,99903.19
2023-04-15T16:33:23.411Z,99911.56
2023-04-15T16:35:52.293Z,99914.97
2023-04-15T16:38:19.886Z,99914.13
2023-04-15T16:40:58.683Z,99925.63
2023-04-15T16:43:27.214Z,99910.50
2023-04-15T16:45:54.763Z,99924.22
2023-04-15T16:48:22.280Z,99943.56
2023-04-15T16:50:49.944Z,99940.06
2023-04-15T16:53:17.764Z,99951.97
2023-04-15T16:55:46.038Z,99952.25
2023-04-15T16:58:13.558Z,99955.94
2023-04-15T17:00:41.054Z,99961.13
2023-04-15T17:03:08.855Z,99964.59
2023-04-15T17:05:39.116Z,99969.03
2023-04-15T17:08:06.758Z,99968.03
2023-04-15T17:10:34.500Z,99973.00
2023-04-15T17:13:02.047Z,99980.59
2023-04-15T17:15:29.812Z,99995.06
2023-04-15T17:18:12.164Z,99991.94
2023-04-15T17:20:42.029Z,99999.00
2023-04-15T17:23:09.794Z,100007.06
2023-04-15T17:25:37.770Z,100010.53
2023-04-15T17:28:05.998Z,100009.91
2023-04-15T17:30:34.598Z,100008.81
2023-04-15T17:33:57.987Z,100017.06
2023-04-15T17:36:29.664Z,100024.69
2023-04-15T17:39:18.702Z,100036.59
2023-04-15T17:42:11.725Z,100034.56
2023-04-15T17:44:59.127Z,100038.00
2023-04-15T17:47:48.699Z,100043.47
2023-04-15T17:50:38.520Z,100034.56
2023-04-15T17:53:25.979Z,100058.09
2023-04-15T17:56:19.817Z,100056.75
2023-04-15T17:59:23.061Z,100070.03
2023-04-15T18:02:23.445Z,100071.47
2023-04-15T18:05:20.491Z,100076.69
2023-04-15T18:08:09.057Z,100079.19
2023-04-15T18:10:56.672Z,100089.13
2023-04-15T18:13:44.184Z,100091.25
2023-04-15T18:16:32.069Z,100098.50
2023-04-15T18:19:19.704Z,100084.47
2023-04-15T18:21:48.294Z,100094.44
2023-04-15T18:24:16.160Z,100093.09
2023-04-15T18:26:43.739Z,100095.63
2023-04-15T18:29:11.293Z,100098.75
2023-04-15T18:31:38.797Z,100109.56
2023-04-15T18:34:07.366Z,100107.50
2023-04-15T18:36:35.013Z,100115.97
2023-04-15T18:39:02.722Z,100116.13
2023-04-15T18:41:30.417Z,100131.63
2023-04-15T18:43:57.924Z,100138.75
2023-04-15T18:46:25.438Z,100143.38
2023-04-15T18:48:52.961Z,100158.66
2023-04-15T18:51:20.528Z,100148.22
2023-04-15T18:53:48.017Z,100153.81
2023-04-15T18:56:15.621Z,100156.03
2023-04-15T18:59:19.078Z,100170.00
2023-04-15T19:01:32.019Z,100173.19
2023-04-15T19:03:59.907Z,100179.50
2023-04-15T19:06:28.642Z,100175.81
2023-04-15T19:08:58.658Z,100174.84
2023-04-15T19:11:26.390Z,100196.13
2023-04-15T19:13:54.563Z,100195.31
2023-04-15T19:16:22.094Z,100194.50
2023-04-15T19:18:49.787Z,100191.69
2023-04-15T19:21:17.598Z,100201.78
2023-04-15T19:23:45.307Z,100206.56
2023-04-15T19:26:12.830Z,100210.69
2023-04-15T19:28:40.315Z,100216.19
2023-04-15T19:31:07.903Z,100221.28
2023-04-15T19:33:35.540Z,100222.16
2023-04-15T19:36:05.381Z,100211.28
2023-04-15T19:38:36.020Z,100212.97
2023-04-15T19:41:04.231Z,100231.00
2023-04-15T19:43:32.930Z,100235.63
2023-04-15T19:46:00.656Z,100237.72
2023-04-15T19:48:28.334Z,100225.53
2023-04-15T19:50:57.229Z,100230.19
2023-04-15T19:53:25.694Z,100243.50
2023-04-15T19:55:53.197Z,100246.50
2023-04-15T19:58:20.605Z,100245.19
2023-04-15T20:00:48.077Z,100251.28
2023-04-15T20:03:16.264Z,100247.22
2023-04-15T20:09:24.046Z,100244.81
2023-04-15T20:12:47.510Z,100253.72
2023-04-15T20:14:39.535Z,100252.94
2023-04-15T20:17:07.100Z,100252.81
2023-04-15T20:19:34.769Z,100259.63
2023-04-15T20:22:02.358Z,100255.84
2023-04-15T20:24:29.958Z,100255.84
2023-04-15T20:26:57.646Z,100264.69
2023-04-15T20:29:25.680Z,100261.53
2023-04-15T20:31:53.371Z,100267.09
2023-04-15T20:34:21.150Z,100267.63
2023-04-15T20:36:48.913Z,100269.25
2023-04-15T20:39:34.836Z,100273.53
2023-04-15T20:42:02.843Z,100278.44
2023-04-15T20:44:30.599Z,100275.94
2023-04-15T20:46:58.505Z,100277.00
2023-04-15T20:49:26.044Z,100277.50
2023-04-15T20:51:53.547Z,100278.88
2023-04-15T20:54:21.382Z,100276.13
2023-04-15T20:56:48.976Z,100287.28
2023-04-15T20:59:16.589Z,100286.13
2023-04-15T21:01:44.389Z,100285.09
2023-04-15T21:04:11.965Z,100296.81
2023-04-15T21:06:39.500Z,100293.28
2023-04-15T21:09:07.382Z,100296.41
2023-04-15T21:11:46.358Z,100297.66
2023-04-15T21:14:22.718Z,100299.91
2023-04-15T21:16:50.514Z,100306.19
2023-04-15T21:19:18.281Z,100327.00
2023-04-15T21:21:46.149Z,100321.78
2023-04-15T21:24:14.956Z,100327.88
2023-04-15T21:26:42.455Z,100318.19
2023-04-15T21:29:11.709Z,100321.25
2023-04-15T21:31:40.339Z,100325.66
2023-04-15T21:34:08.312Z,100332.47
2023-04-15T21:36:36.703Z,100332.63
2023-04-15T21:39:06.087Z,100336.50
2023-04-15T21:41:33.857Z,100333.91
2023-04-15T21:44:01.641Z,100334.66
2023-04-15T21:46:33.197Z,100340.13
2023-04-15T21:49:03.829Z,100347.25
2023-04-15T21:51:32.726Z,100336.66
2023-04-15T21:54:00.366Z,100351.16
2023-04-15T21:56:28.029Z,100357.13
2023-04-15T21:58:57.554Z,100356.03
2023-04-15T22:01:26.643Z,100352.69
2023-04-15T22:03:54.585Z,100358.00
2023-04-15T22:06:22.548Z,100355.69
2023-04-15T22:09:10.651Z,100361.59
2023-04-15T22:11:38.233Z,100355.19
2023-04-15T22:15:00.704Z,100358.72
2023-04-15T22:17:28.619Z,100346.47
2023-04-15T22:19:56.476Z,100354.34
2023-04-15T22:22:26.611Z,100352.03
2023-04-15T22:25:03.475Z,100353.56
2023-04-15T22:27:31.029Z,100361.25
2023-04-15T22:29:59.364Z,100361.91
2023-04-15T22:32:27.032Z,100365.44
2023-04-15T22:34:55.137Z,100364.84
2023-04-15T22:37:24.022Z,100358.59
2023-04-15T22:39:52.012Z,100361.09
2023-04-15T22:42:19.839Z,100362.97
2023-04-15T22:44:47.779Z,100371.53
2023-04-15T22:47:15.669Z,100375.69
2023-04-15T22:49:45.022Z,100378.59
2023-04-15T22:52:23.334Z,100377.88
2023-04-15T22:54:57.387Z,100374.94
2023-04-15T22:57:25.218Z,100379.41
2023-04-15T22:59:52.862Z,100381.19
2023-04-15T23:02:20.853Z,100381.25
2023-04-15T23:04:49.078Z,100379.00
2023-04-15T23:07:19.690Z,100374.91
2023-04-15T23:09:47.255Z,100375.44
2023-04-15T23:12:15.126Z,100386.84
2023-04-15T23:14:43.065Z,100378.75
2023-04-15T23:17:11.321Z,100377.69
2023-04-15T23:19:38.915Z,100368.34
2023-04-15T23:22:10.644Z,100367.72
2023-04-15T23:24:41.073Z,100361.19
2023-04-15T23:27:08.812Z,100367.09
2023-04-15T23:29:36.425Z,100367.63
2023-04-15T23:32:04.893Z,100370.25
2023-04-15T23:34:32.834Z,100371.59
2023-04-15T23:37:01.079Z,100377.97
2023-04-15T23:39:30.572Z,100381.69
2023-04-15T23:41:58.772Z,100392.59
2023-04-15T23:44:28.926Z,100391.53
2023-04-15T23:46:57.104Z,100392.47
2023-04-15T23:49:24.959Z,100394.13
2023-04-15T23:51:52.856Z,100389.72
2023-04-15T23:54:20.793Z,100388.25
2023-04-15T23:56:48.484Z,100388.88
2023-04-15T23:59:16.377Z,100381.31
